This is the latest recevied weather packets stored in our database for station/object KF4UQS-14. If no packets are shown the sender has not sent any weather packets the latest 10 day(s).
| Time | Temp. | Humidity | Pressure | Rain* | Wind** | Luminosity | Snow |
|---|---|---|---|---|---|---|---|
| 1777667859 | 16.11° C | 59% | 1013.9 hPa | 0 mm | - | 387 W/m² | - |
| 1777667556 | 16.11° C | 57% | 1014 hPa | 0 mm | - | 310 W/m² | - |
| 1777667253 | 16.67° C | 56% | 1014.1 hPa | 0 mm | - | 328 W/m² | - |
| 1777666950 | 16.67° C | 55% | 1014.1 hPa | 0 mm | - | 537 W/m² | - |
| 1777666647 | 16.67° C | 55% | 1014.1 hPa | 0 mm | - | 587 W/m² | - |
| 1777666344 | 16.67° C | 54% | 1014.3 hPa | 0 mm | - | 432 W/m² | - |
| 1777666040 | 16.67° C | 55% | 1014.2 hPa | 0 mm | - | 590 W/m² | - |
| 1777665738 | 16.11° C | 57% | 1014.3 hPa | 0 mm | - | 575 W/m² | - |
| 1777665435 | 16.67° C | 58% | 1014.1 hPa | 0 mm | - | 596 W/m² | - |
| 1777665131 | 16.11° C | 57% | 1014.3 hPa | 0 mm | - | 602 W/m² | - |
| 1777664827 | 17.22° C | 56% | 1014.4 hPa | 0 mm | - | 607 W/m² | - |
| 1777664522 | 16.67° C | 55% | 1014.5 hPa | 0 mm | - | 622 W/m² | - |
| 1777664214 | 16.11° C | 56% | 1014.7 hPa | 0 mm | - | 633 W/m² | - |
| 1777663913 | 16.67° C | 57% | 1014.5 hPa | 0 mm | - | 645 W/m² | - |
| 1777663609 | 16.11° C | 58% | 1014.8 hPa | 0 mm | - | 676 W/m² | - |
| 1777663306 | 16.67° C | 55% | 1015 hPa | 0 mm | - | 516 W/m² | - |
| 1777663003 | 16.67° C | 55% | 1015 hPa | 0 mm | - | 681 W/m² | - |
| 1777662696 | 16.67° C | 57% | 1014.8 hPa | 0 mm | - | 590 W/m² | - |
| 1777662392 | 16.67° C | 56% | 1015 hPa | 0 mm | - | 673 W/m² | - |
| 1777662086 | 16.11° C | 58% | 1015 hPa | 0 mm | - | 600 W/m² | - |
| 1777661783 | 16.67° C | 57% | 1015.1 hPa | 0 mm | - | 711 W/m² | - |
| 1777661479 | 16.11° C | 58% | 1015.2 hPa | 0 mm | - | 720 W/m² | - |
| 1777661175 | 16.11° C | 57% | 1015.4 hPa | 0 mm | - | 730 W/m² | - |
| 1777660870 | 16.67° C | 58% | 1015.3 hPa | 0 mm | - | 738 W/m² | - |
| 1777660567 | 17.22° C | 57% | 1015.4 hPa | 0 mm | - | 770 W/m² | - |
* Rain latest hour (hover to see other rain measurements)
** Current wind speed in m/s (hover to see current wind gust speed)